Time;durP1;ratioP1;P1;durP2;ratioP2;P2;SDS_P1;SDS_P2;PMS_P1;PMS_P2;Temp;Humidity;BMP_temperature;BMP_pressure;BME280_temperature;BME280_humidity;BME280_pressure;Samples;Min_cycle;Max_cycle;Signal;HPM_P1;HPM_P2
2021/04/09 00:01:01;;;;;;;29.38;26.98;;;;;;;;;;5094908;28;20191;-74
2021/04/09 00:03:28;;;;;;;30.42;28.08;;;;;;;;;;5094964;28;20244;-74
2021/04/09 00:05:55;;;;;;;30.05;27.30;;;;;;;;;;5093674;28;20188;-74
2021/04/09 00:08:22;;;;;;;29.73;27.67;;;;;;;;;;5094460;28;20188;-74
2021/04/09 00:10:49;;;;;;;30.73;28.60;;;;;;;;;;5093506;28;20215;-74
2021/04/09 00:13:16;;;;;;;29.33;27.23;;;;;;;;;;5094486;28;20193;-74
2021/04/09 00:15:44;;;;;;;29.10;26.92;;;;;;;;;;5094453;28;20191;-73
2021/04/09 00:18:11;;;;;;;29.50;27.60;;;;;;;;;;5094635;28;20191;-73
2021/04/09 00:20:38;;;;;;;30.13;27.83;;;;;;;;;;5094248;28;20191;-74
2021/04/09 00:23:05;;;;;;;29.88;27.73;;;;;;;;;;5094605;28;20191;-72
2021/04/09 00:25:32;;;;;;;33.53;30.92;;;;;;;;;;5094460;28;20221;-74
2021/04/09 00:27:58;;;;;;;31.40;29.10;;;;;;;;;;5094302;28;20192;-74
2021/04/09 00:30:26;;;;;;;28.65;26.42;;;;;;;;;;5094326;28;20187;-74
2021/04/09 00:32:54;;;;;;;29.52;27.02;;;;;;;;;;5093849;28;20207;-74
2021/04/09 00:35:22;;;;;;;30.30;28.13;;;;;;;;;;5094430;28;20244;-74
2021/04/09 00:37:49;;;;;;;28.77;26.77;;;;;;;;;;5094071;28;20228;-74
2021/04/09 00:40:16;;;;;;;29.25;27.08;;;;;;;;;;5093953;28;20188;-74
2021/04/09 00:42:43;;;;;;;29.50;27.27;;;;;;;;;;5075926;28;20199;-74
2021/04/09 00:45:11;;;;;;;29.67;27.55;;;;;;;;;;5093945;28;20191;-74
2021/04/09 00:47:38;;;;;;;31.23;28.70;;;;;;;;;;5093883;28;20184;-74
2021/04/09 00:50:07;;;;;;;30.33;27.63;;;;;;;;;;5093776;28;20187;-73
2021/04/09 00:52:35;;;;;;;31.30;28.80;;;;;;;;;;5094075;28;20277;-74
2021/04/09 00:55:02;;;;;;;30.33;27.90;;;;;;;;;;5093769;28;20228;-73
2021/04/09 00:57:29;;;;;;;30.85;28.75;;;;;;;;;;5093941;28;20192;-73
2021/04/09 00:59:56;;;;;;;30.30;27.92;;;;;;;;;;5093912;28;20192;-74
2021/04/09 01:02:23;;;;;;;31.85;29.38;;;;;;;;;;5093658;28;20198;-74
2021/04/09 01:04:51;;;;;;;30.38;28.20;;;;;;;;;;5092726;28;20196;-74
2021/04/09 01:07:19;;;;;;;30.48;28.15;;;;;;;;;;5093973;28;20192;-74
2021/04/09 01:09:46;;;;;;;31.02;28.75;;;;;;;;;;5093534;28;20660;-74
2021/04/09 01:12:13;;;;;;;30.80;28.38;;;;;;;;;;5093474;28;20681;-73
2021/04/09 01:14:41;;;;;;;29.67;27.50;;;;;;;;;;5092621;28;20204;-74
2021/04/09 01:17:11;;;;;;;30.00;27.95;;;;;;;;;;5093856;28;20204;-73
2021/04/09 01:19:52;;;;;;;31.92;29.08;;;;;;;;;;5093207;28;20293;-74
2021/04/09 01:22:22;;;;;;;30.48;28.13;;;;;;;;;;5060337;28;20645;-73
2021/04/09 01:24:58;;;;;;;30.10;27.88;;;;;;;;;;5093761;28;20207;-74
2021/04/09 01:27:40;;;;;;;31.95;29.08;;;;;;;;;;5093331;28;20223;-74
2021/04/09 01:30:27;;;;;;;29.83;27.50;;;;;;;;;;5093674;28;20230;-74
2021/04/09 01:32:56;;;;;;;30.05;27.80;;;;;;;;;;5093709;28;20198;-74
2021/04/09 01:35:24;;;;;;;32.75;30.02;;;;;;;;;;5092204;28;20633;-74
2021/04/09 01:37:54;;;;;;;34.38;31.35;;;;;;;;;;5093692;28;20214;-74
2021/04/09 01:40:22;;;;;;;31.55;29.10;;;;;;;;;;5093547;28;20272;-74
2021/04/09 01:42:52;;;;;;;30.65;28.23;;;;;;;;;;5093540;28;20198;-73
2021/04/09 01:45:20;;;;;;;30.05;27.75;;;;;;;;;;5093580;28;20205;-74
2021/04/09 01:47:47;;;;;;;29.80;27.70;;;;;;;;;;5093236;28;20193;-74
2021/04/09 01:50:16;;;;;;;33.55;30.73;;;;;;;;;;5092326;28;20183;-74
2021/04/09 01:52:44;;;;;;;31.23;28.85;;;;;;;;;;5093091;28;20223;-74
2021/04/09 01:55:13;;;;;;;30.95;28.08;;;;;;;;;;5092995;28;20243;-74
2021/04/09 01:57:41;;;;;;;29.85;27.60;;;;;;;;;;5093265;28;20192;-74
2021/04/09 02:00:12;;;;;;;30.92;28.48;;;;;;;;;;5095186;28;20192;-74
2021/04/09 02:02:40;;;;;;;30.88;28.48;;;;;;;;;;5097228;28;20197;-73
2021/04/09 02:05:07;;;;;;;29.75;27.30;;;;;;;;;;5095970;28;20665;-74
2021/04/09 02:07:36;;;;;;;31.52;29.02;;;;;;;;;;5097265;28;20188;-74
2021/04/09 02:10:05;;;;;;;30.20;27.90;;;;;;;;;;5097110;28;20188;-74
2021/04/09 02:12:32;;;;;;;31.20;28.83;;;;;;;;;;5097034;28;20220;-74
2021/04/09 02:14:59;;;;;;;30.05;27.70;;;;;;;;;;5096756;28;20203;-74
2021/04/09 02:17:26;;;;;;;30.63;28.40;;;;;;;;;;5097014;28;20191;-74
2021/04/09 02:19:53;;;;;;;30.40;28.00;;;;;;;;;;5078663;28;20200;-74
2021/04/09 02:22:20;;;;;;;30.00;27.80;;;;;;;;;;5096899;28;20192;-74
2021/04/09 02:24:48;;;;;;;30.80;28.50;;;;;;;;;;5096620;28;20187;-74
2021/04/09 02:27:16;;;;;;;29.98;27.77;;;;;;;;;;5096060;28;20247;-74
2021/04/09 02:29:43;;;;;;;30.80;28.50;;;;;;;;;;5095558;28;20191;-74
2021/04/09 02:32:10;;;;;;;31.60;28.98;;;;;;;;;;5096642;28;20244;-73
2021/04/09 02:34:38;;;;;;;30.98;28.52;;;;;;;;;;5096721;28;20649;-74
2021/04/09 02:37:05;;;;;;;31.02;28.45;;;;;;;;;;5096542;28;20238;-74
2021/04/09 02:39:34;;;;;;;30.13;27.83;;;;;;;;;;5096529;28;20206;-74
2021/04/09 02:42:06;;;;;;;30.80;28.67;;;;;;;;;;5096615;28;20199;-74
2021/04/09 02:44:34;;;;;;;30.75;28.42;;;;;;;;;;5096529;28;20187;-74
2021/04/09 02:47:02;;;;;;;30.10;27.90;;;;;;;;;;5096546;28;20227;-74
2021/04/09 02:49:31;;;;;;;29.63;27.52;;;;;;;;;;5096020;28;20219;-74
2021/04/09 02:51:59;;;;;;;31.30;28.80;;;;;;;;;;5096308;28;20216;-74
2021/04/09 02:54:27;;;;;;;31.45;28.98;;;;;;;;;;5095845;28;20239;-74
2021/04/09 02:56:54;;;;;;;31.65;29.05;;;;;;;;;;5095774;28;20576;-74
2021/04/09 02:59:22;;;;;;;30.73;28.35;;;;;;;;;;5096147;28;20229;-73
2021/04/09 03:01:49;;;;;;;31.30;29.02;;;;;;;;;;5096911;28;20192;-74
2021/04/09 03:04:18;;;;;;;29.10;27.00;;;;;;;;;;5094574;28;20253;-74
2021/04/09 03:06:45;;;;;;;31.13;28.80;;;;;;;;;;5095775;28;20190;-74
2021/04/09 03:09:12;;;;;;;30.58;28.27;;;;;;;;;;5096034;28;20188;-74
2021/04/09 03:11:42;;;;;;;31.15;28.58;;;;;;;;;;5094977;28;20223;-74
2021/04/09 03:14:09;;;;;;;30.35;28.10;;;;;;;;;;5095713;28;20186;-74
2021/04/09 03:16:40;;;;;;;31.15;28.33;;;;;;;;;;5095866;28;20195;-74
2021/04/09 03:19:07;;;;;;;30.40;28.02;;;;;;;;;;5095895;28;20569;-74
2021/04/09 03:21:34;;;;;;;30.65;28.30;;;;;;;;;;5095816;28;20189;-73
2021/04/09 03:24:01;;;;;;;32.05;29.48;;;;;;;;;;5095456;28;20196;-74
2021/04/09 03:26:28;;;;;;;29.73;27.55;;;;;;;;;;5095803;28;20216;-74
2021/04/09 03:28:55;;;;;;;30.27;27.98;;;;;;;;;;5095665;28;20189;-74
2021/04/09 03:31:22;;;;;;;31.25;28.85;;;;;;;;;;5095499;28;20214;-73
2021/04/09 03:33:50;;;;;;;30.50;28.20;;;;;;;;;;5095453;28;20213;-74
2021/04/09 03:36:17;;;;;;;30.88;28.38;;;;;;;;;;5095487;28;20184;-74
2021/04/09 03:38:44;;;;;;;30.02;27.83;;;;;;;;;;5093867;28;20203;-74
2021/04/09 03:41:11;;;;;;;29.65;27.45;;;;;;;;;;5095439;28;20278;-74
2021/04/09 03:43:38;;;;;;;31.77;29.20;;;;;;;;;;5093850;28;20199;-74
2021/04/09 03:46:04;;;;;;;29.95;27.85;;;;;;;;;;5095367;28;20248;-74
2021/04/09 03:48:32;;;;;;;29.27;27.17;;;;;;;;;;5095219;28;20231;-74
2021/04/09 03:51:00;;;;;;;30.85;28.60;;;;;;;;;;5095123;28;20202;-74
2021/04/09 03:53:26;;;;;;;30.65;28.25;;;;;;;;;;5094658;28;20200;-74
2021/04/09 03:55:53;;;;;;;30.50;28.10;;;;;;;;;;5094739;28;20211;-74
2021/04/09 03:58:20;;;;;;;31.05;28.42;;;;;;;;;;5095020;28;20195;-74
2021/04/09 04:00:47;;;;;;;30.52;28.27;;;;;;;;;;5094674;28;20199;-74
2021/04/09 04:03:14;;;;;;;31.60;29.20;;;;;;;;;;5094717;28;20629;-74
2021/04/09 04:05:41;;;;;;;31.00;28.60;;;;;;;;;;5094670;28;20189;-73
2021/04/09 04:08:08;;;;;;;30.35;27.98;;;;;;;;;;5094573;28;20642;-74
2021/04/09 04:10:35;;;;;;;29.75;27.52;;;;;;;;;;5094812;28;20202;-74
2021/04/09 04:13:02;;;;;;;30.23;27.92;;;;;;;;;;5094417;28;20272;-74
2021/04/09 04:15:29;;;;;;;29.63;27.48;;;;;;;;;;5094790;28;20195;-74
2021/04/09 04:17:57;;;;;;;28.80;26.70;;;;;;;;;;5094795;28;20197;-74
2021/04/09 04:20:23;;;;;;;30.63;28.10;;;;;;;;;;5094642;28;20314;-74
2021/04/09 04:22:50;;;;;;;31.50;28.70;;;;;;;;;;5093901;28;20200;-73
2021/04/09 04:25:18;;;;;;;30.52;28.30;;;;;;;;;;5094393;28;20238;-74
2021/04/09 04:27:45;;;;;;;30.48;27.98;;;;;;;;;;5094353;28;20610;-74
2021/04/09 04:30:13;;;;;;;31.45;28.67;;;;;;;;;;5093003;28;20645;-74
2021/04/09 04:32:41;;;;;;;30.25;27.85;;;;;;;;;;5094005;28;20675;-74
2021/04/09 04:35:09;;;;;;;31.95;29.35;;;;;;;;;;5094418;28;20191;-74
2021/04/09 04:37:36;;;;;;;29.75;27.58;;;;;;;;;;5093067;28;20560;-74
2021/04/09 04:40:03;;;;;;;31.13;28.33;;;;;;;;;;5094316;28;20265;-74
2021/04/09 04:42:31;;;;;;;30.83;28.33;;;;;;;;;;5093950;28;20195;-74
2021/04/09 04:44:57;;;;;;;31.10;28.42;;;;;;;;;;5094211;28;20276;-74
2021/04/09 04:47:25;;;;;;;30.60;28.25;;;;;;;;;;5093932;28;20192;-74
2021/04/09 04:49:52;;;;;;;30.73;28.58;;;;;;;;;;5093732;28;20632;-74
2021/04/09 04:52:18;;;;;;;30.73;28.05;;;;;;;;;;5093777;28;20211;-74
2021/04/09 04:54:45;;;;;;;29.02;26.77;;;;;;;;;;5093684;27;20637;-74
2021/04/09 04:57:12;;;;;;;30.50;28.35;;;;;;;;;;5094282;28;20188;-74
2021/04/09 04:59:40;;;;;;;30.83;28.35;;;;;;;;;;5094053;28;20195;-74
2021/04/09 05:02:07;;;;;;;31.23;28.63;;;;;;;;;;5094076;28;20194;-74
2021/04/09 05:04:34;;;;;;;30.30;27.90;;;;;;;;;;5093680;28;20190;-74
2021/04/09 05:07:01;;;;;;;30.77;28.27;;;;;;;;;;5093999;28;20289;-73
2021/04/09 05:09:28;;;;;;;30.30;27.70;;;;;;;;;;5093883;28;20192;-75
2021/04/09 05:11:55;;;;;;;30.45;27.77;;;;;;;;;;5093867;28;20248;-74
2021/04/09 05:14:21;;;;;;;31.70;28.65;;;;;;;;;;5093923;28;20211;-74
2021/04/09 05:16:49;;;;;;;30.83;28.02;;;;;;;;;;5093881;28;20187;-73
2021/04/09 05:19:16;;;;;;;30.17;27.60;;;;;;;;;;5093407;28;20637;-74
2021/04/09 05:21:43;;;;;;;30.27;27.80;;;;;;;;;;5093445;28;20199;-74
2021/04/09 05:24:10;;;;;;;31.38;28.88;;;;;;;;;;5093428;28;20694;-74
2021/04/09 05:26:37;;;;;;;29.67;27.08;;;;;;;;;;5093545;28;20215;-74
2021/04/09 05:29:03;;;;;;;30.10;27.33;;;;;;;;;;5093368;28;20294;-73
2021/04/09 05:31:33;;;;;;;31.55;28.38;;;;;;;;;;5093284;28;20230;-74
2021/04/09 05:34:01;;;;;;;29.65;27.25;;;;;;;;;;5092175;28;20679;-74
2021/04/09 05:36:28;;;;;;;29.73;27.23;;;;;;;;;;5096800;28;20194;-73
2021/04/09 05:38:54;;;;;;;31.00;28.80;;;;;;;;;;5097068;28;20221;-74
2021/04/09 05:41:21;;;;;;;33.10;30.77;;;;;;;;;;5097292;28;20202;-74
2021/04/09 05:43:48;;;;;;;32.75;30.17;;;;;;;;;;5097196;28;20199;-73
2021/04/09 05:46:16;;;;;;;31.92;29.27;;;;;;;;;;5097650;28;20546;-72
2021/04/09 05:48:42;;;;;;;31.38;29.08;;;;;;;;;;5097294;28;20211;-72
2021/04/09 05:51:10;;;;;;;31.30;28.98;;;;;;;;;;5097370;28;20189;-73
2021/04/09 05:53:37;;;;;;;31.55;29.00;;;;;;;;;;5096921;28;20195;-74
2021/04/09 05:56:04;;;;;;;29.35;27.00;;;;;;;;;;5097099;28;20199;-73
2021/04/09 05:58:31;;;;;;;30.92;28.73;;;;;;;;;;5097114;28;20187;-74
2021/04/09 06:00:58;;;;;;;31.02;28.42;;;;;;;;;;5097265;28;20202;-74
2021/04/09 06:03:24;;;;;;;30.20;27.75;;;;;;;;;;5096943;28;20242;-74
2021/04/09 06:05:51;;;;;;;30.35;28.05;;;;;;;;;;5096841;28;20188;-74
2021/04/09 06:08:19;;;;;;;29.58;27.38;;;;;;;;;;5096859;28;20192;-73
2021/04/09 06:10:46;;;;;;;29.17;26.75;;;;;;;;;;5097145;28;20193;-73
2021/04/09 06:13:13;;;;;;;29.90;27.80;;;;;;;;;;5096966;28;20219;-74
2021/04/09 06:15:40;;;;;;;28.92;26.83;;;;;;;;;;5096745;28;20205;-74
2021/04/09 06:18:07;;;;;;;31.02;28.15;;;;;;;;;;5096533;28;20673;-73
2021/04/09 06:20:34;;;;;;;31.02;28.63;;;;;;;;;;5095374;28;20188;-74
2021/04/09 06:23:01;;;;;;;29.70;27.23;;;;;;;;;;5096875;28;20198;-74
2021/04/09 06:25:29;;;;;;;31.45;28.95;;;;;;;;;;5096608;28;20255;-73
2021/04/09 06:27:56;;;;;;;28.70;26.60;;;;;;;;;;5096725;28;20643;-73
2021/04/09 06:30:23;;;;;;;31.20;28.88;;;;;;;;;;5096265;28;20218;-73
2021/04/09 06:32:50;;;;;;;29.88;27.35;;;;;;;;;;5096649;28;20225;-73
2021/04/09 06:35:17;;;;;;;30.45;28.25;;;;;;;;;;5096686;28;20247;-74
2021/04/09 06:37:43;;;;;;;30.02;27.92;;;;;;;;;;5096597;28;20189;-73
2021/04/09 06:40:11;;;;;;;29.27;26.88;;;;;;;;;;5096534;28;20193;-73
2021/04/09 06:42:39;;;;;;;28.65;26.45;;;;;;;;;;5096182;28;20196;-73
2021/04/09 06:45:07;;;;;;;29.58;27.38;;;;;;;;;;5096512;28;20192;-73
2021/04/09 06:47:33;;;;;;;29.20;26.90;;;;;;;;;;5094733;28;20200;-73
2021/04/09 06:50:01;;;;;;;29.65;27.13;;;;;;;;;;5096123;28;20200;-73
2021/04/09 06:52:28;;;;;;;30.77;27.40;;;;;;;;;;5096025;28;20238;-73
2021/04/09 06:54:55;;;;;;;30.52;28.02;;;;;;;;;;5095991;28;20256;-73
2021/04/09 06:57:23;;;;;;;30.90;28.60;;;;;;;;;;5094930;28;20242;-73
2021/04/09 06:59:52;;;;;;;30.50;28.10;;;;;;;;;;5095646;28;20704;-73
2021/04/09 07:02:19;;;;;;;28.85;26.85;;;;;;;;;;5096074;28;20235;-73
2021/04/09 07:04:46;;;;;;;30.10;27.70;;;;;;;;;;5095967;28;20188;-73
2021/04/09 07:07:14;;;;;;;30.33;27.92;;;;;;;;;;5095682;28;20200;-73
2021/04/09 07:09:41;;;;;;;28.35;26.25;;;;;;;;;;5095622;28;20194;-73
2021/04/09 07:12:20;;;;;;;28.92;26.83;;;;;;;;;;5095597;28;20219;-73
2021/04/09 07:14:47;;;;;;;27.08;25.17;;;;;;;;;;5095503;28;20661;-73
2021/04/09 07:17:21;;;;;;;28.13;25.95;;;;;;;;;;5095502;28;20199;-72
2021/04/09 07:19:48;;;;;;;28.52;26.42;;;;;;;;;;5095655;28;20549;-73
2021/04/09 07:22:15;;;;;;;29.20;26.95;;;;;;;;;;5095689;28;20189;-73
2021/04/09 07:24:42;;;;;;;30.58;28.27;;;;;;;;;;5095937;28;20258;-72
2021/04/09 07:27:09;;;;;;;28.88;26.58;;;;;;;;;;5095167;28;20274;-73
2021/04/09 07:29:45;;;;;;;28.85;26.73;;;;;;;;;;5095506;28;20189;-73
2021/04/09 07:32:39;;;;;;;26.23;24.17;;;;;;;;;;5095443;28;20213;-72
2021/04/09 07:35:11;;;;;;;29.67;27.48;;;;;;;;;;5033098;28;20204;-73
2021/04/09 07:37:49;;;;;;;26.77;24.70;;;;;;;;;;5032923;28;20666;-73
2021/04/09 07:40:17;;;;;;;28.73;26.65;;;;;;;;;;5032923;28;20195;-73
2021/04/09 07:42:44;;;;;;;29.00;26.38;;;;;;;;;;5032800;28;20227;-73
2021/04/09 07:45:12;;;;;;;29.45;27.20;;;;;;;;;;5032154;28;20249;-76
2021/04/09 07:47:40;;;;;;;29.67;27.33;;;;;;;;;;5032902;28;20253;-76
2021/04/09 07:50:14;;;;;;;30.58;28.08;;;;;;;;;;5033172;28;20282;-76
2021/04/09 07:52:42;;;;;;;27.90;25.73;;;;;;;;;;5032670;28;20255;-77
2021/04/09 07:55:13;;;;;;;27.30;25.25;;;;;;;;;;5032591;28;20300;-77
2021/04/09 07:57:40;;;;;;;30.55;28.25;;;;;;;;;;5032423;28;20211;-76
2021/04/09 08:00:16;;;;;;;30.35;27.75;;;;;;;;;;5032714;28;20189;-78
2021/04/09 08:02:43;;;;;;;27.03;25.10;;;;;;;;;;5032452;28;20195;-73
2021/04/09 08:05:13;;;;;;;30.25;27.92;;;;;;;;;;5032492;28;20476;-72
2021/04/09 08:07:41;;;;;;;29.17;26.90;;;;;;;;;;5032417;28;20637;-72
2021/04/09 08:10:09;;;;;;;28.50;26.42;;;;;;;;;;5047367;28;20549;-72
2021/04/09 08:12:36;;;;;;;28.77;26.65;;;;;;;;;;5094738;28;20217;-72
2021/04/09 08:15:12;;;;;;;29.83;27.23;;;;;;;;;;5094822;28;20213;-72
2021/04/09 08:17:39;;;;;;;29.88;27.63;;;;;;;;;;5094399;28;20212;-72
2021/04/09 08:20:10;;;;;;;26.23;24.25;;;;;;;;;;5094127;28;20196;-72
2021/04/09 08:22:38;;;;;;;26.58;24.88;;;;;;;;;;5094529;28;20189;-72
2021/04/09 08:25:06;;;;;;;28.50;26.42;;;;;;;;;;5094152;28;20547;-72
2021/04/09 08:27:33;;;;;;;29.00;26.70;;;;;;;;;;5093154;28;20198;-72
2021/04/09 08:30:00;;;;;;;28.45;26.35;;;;;;;;;;5094210;28;20733;-72
2021/04/09 08:32:27;;;;;;;27.77;25.80;;;;;;;;;;5094358;28;20219;-72
2021/04/09 08:34:55;;;;;;;30.00;27.40;;;;;;;;;;5093924;28;20199;-72
2021/04/09 08:37:22;;;;;;;27.45;25.55;;;;;;;;;;5093963;28;20223;-72
2021/04/09 08:39:51;;;;;;;30.63;27.95;;;;;;;;;;5093843;28;20183;-76
2021/04/09 08:42:18;;;;;;;27.67;25.83;;;;;;;;;;5093895;28;20654;-72
2021/04/09 08:44:45;;;;;;;27.02;25.02;;;;;;;;;;5094178;28;20233;-72
2021/04/09 08:47:13;;;;;;;29.60;27.20;;;;;;;;;;5094243;28;20186;-71
2021/04/09 08:49:40;;;;;;;27.80;25.90;;;;;;;;;;5093782;28;20440;-73
2021/04/09 08:52:06;;;;;;;28.17;25.83;;;;;;;;;;5093841;28;20676;-72
2021/04/09 08:54:34;;;;;;;29.10;27.00;;;;;;;;;;5093591;28;20476;-73
2021/04/09 08:57:03;;;;;;;26.73;24.53;;;;;;;;;;5093593;28;20416;-80
2021/04/09 08:59:50;;;;;;;26.33;24.52;;;;;;;;;;5094476;28;20440;-72
2021/04/09 09:02:19;;;;;;;28.50;26.37;;;;;;;;;;5089090;28;20605;-72
2021/04/09 09:04:58;;;;;;;27.97;25.77;;;;;;;;;;5093888;28;20461;-81
2021/04/09 09:07:44;;;;;;;28.95;26.67;;;;;;;;;;5075991;28;20938;-76
2021/04/09 09:10:26;;;;;;;28.58;26.55;;;;;;;;;;5093043;28;20194;-76
2021/04/09 09:13:08;;;;;;;26.90;24.98;;;;;;;;;;5093495;28;20240;-76
2021/04/09 09:15:52;;;;;;;26.17;24.27;;;;;;;;;;5093821;28;20307;-76
2021/04/09 09:18:34;;;;;;;27.63;25.47;;;;;;;;;;5092713;28;20596;-75
2021/04/09 09:21:02;;;;;;;25.87;24.17;;;;;;;;;;5093371;28;20418;-75
2021/04/09 09:23:42;;;;;;;26.03;24.30;;;;;;;;;;5093609;28;20440;-76
2021/04/09 09:26:19;;;;;;;25.27;23.63;;;;;;;;;;5093752;28;20468;-76
2021/04/09 09:28:47;;;;;;;25.57;23.70;;;;;;;;;;5093642;28;20921;-75
2021/04/09 09:31:29;;;;;;;25.83;24.23;;;;;;;;;;5093925;28;20403;-75
2021/04/09 09:34:14;;;;;;;25.70;23.80;;;;;;;;;;5093618;28;20193;-75
2021/04/09 09:36:59;;;;;;;26.35;24.55;;;;;;;;;;5093567;28;20422;-76
2021/04/09 09:39:33;;;;;;;25.90;24.10;;;;;;;;;;5093728;28;20194;-76
2021/04/09 09:42:00;;;;;;;24.60;22.90;;;;;;;;;;5093735;28;20441;-76
2021/04/09 09:44:28;;;;;;;25.52;23.73;;;;;;;;;;5093790;28;20445;-76
2021/04/09 09:46:56;;;;;;;27.63;25.67;;;;;;;;;;5093409;28;20196;-76
2021/04/09 09:49:23;;;;;;;24.37;22.60;;;;;;;;;;5093340;28;20472;-76
2021/04/09 09:51:51;;;;;;;25.37;23.57;;;;;;;;;;5093111;28;20545;-75
2021/04/09 09:54:26;;;;;;;26.93;24.73;;;;;;;;;;5093378;28;20492;-76
2021/04/09 09:56:53;;;;;;;26.33;24.40;;;;;;;;;;5093241;28;20410;-79
2021/04/09 09:59:20;;;;;;;25.10;23.50;;;;;;;;;;5092138;28;20612;-76
2021/04/09 10:01:51;;;;;;;25.70;24.03;;;;;;;;;;5093197;28;20496;-75
2021/04/09 10:04:18;;;;;;;24.83;23.23;;;;;;;;;;5093200;28;20805;-76
2021/04/09 10:06:50;;;;;;;26.27;24.40;;;;;;;;;;5093694;28;20440;-76
2021/04/09 10:09:23;;;;;;;25.43;23.93;;;;;;;;;;5092990;28;20946;-75
2021/04/09 10:11:51;;;;;;;25.30;23.27;;;;;;;;;;5092807;28;20471;-75
2021/04/09 10:14:18;;;;;;;23.70;22.30;;;;;;;;;;5093376;28;20437;-75
2021/04/09 10:16:46;;;;;;;25.53;23.87;;;;;;;;;;5093453;28;20411;-76
2021/04/09 10:19:13;;;;;;;25.77;24.23;;;;;;;;;;5093298;28;20443;-76
2021/04/09 10:21:40;;;;;;;24.40;22.90;;;;;;;;;;5095550;28;20452;-76
2021/04/09 10:24:08;;;;;;;24.80;23.30;;;;;;;;;;5095606;28;20971;-76
2021/04/09 10:26:35;;;;;;;26.43;24.63;;;;;;;;;;5096863;28;20461;-86
2021/04/09 10:29:03;;;;;;;26.57;24.70;;;;;;;;;;5095640;28;20935;-87
2021/04/09 10:31:42;;;;;;;26.00;24.00;;;;;;;;;;5098981;28;20407;-88
2021/04/09 10:34:10;;;;;;;26.10;24.17;;;;;;;;;;5097163;28;20539;-85
2021/04/09 10:36:37;;;;;;;27.97;25.93;;;;;;;;;;5097443;28;20435;-85
2021/04/09 10:39:12;;;;;;;27.60;25.80;;;;;;;;;;5097482;28;20407;-82
2021/04/09 10:41:40;;;;;;;26.40;24.70;;;;;;;;;;5096128;28;20454;-88
2021/04/09 10:44:11;;;;;;;27.30;25.50;;;;;;;;;;5097362;28;20467;-87
2021/04/09 10:46:41;;;;;;;27.03;25.30;;;;;;;;;;5098123;28;20746;-86
2021/04/09 10:49:09;;;;;;;25.37;23.67;;;;;;;;;;5097415;28;20437;-75
2021/04/09 10:51:37;;;;;;;26.60;24.90;;;;;;;;;;5096396;28;20446;-75
2021/04/09 10:54:07;;;;;;;24.80;23.10;;;;;;;;;;5096203;28;20865;-75
2021/04/09 10:56:34;;;;;;;24.53;22.93;;;;;;;;;;5096000;28;20986;-75
2021/04/09 10:59:01;;;;;;;25.77;23.90;;;;;;;;;;5096259;28;20432;-75
2021/04/09 11:01:29;;;;;;;25.07;23.50;;;;;;;;;;5096267;28;20415;-75
2021/04/09 11:03:56;;;;;;;25.50;24.00;;;;;;;;;;5096266;28;20433;-75
2021/04/09 11:06:23;;;;;;;25.30;23.77;;;;;;;;;;5095977;28;20407;-75
2021/04/09 11:08:56;;;;;;;27.07;25.37;;;;;;;;;;5095963;28;20962;-76
2021/04/09 11:11:28;;;;;;;27.30;25.40;;;;;;;;;;5095922;28;20411;-75
2021/04/09 11:14:00;;;;;;;26.20;24.50;;;;;;;;;;5095751;28;20466;-75
2021/04/09 11:16:27;;;;;;;29.50;27.20;;;;;;;;;;5095718;28;20893;-76
2021/04/09 11:18:55;;;;;;;26.73;24.90;;;;;;;;;;5096091;28;20422;-76
2021/04/09 11:21:37;;;;;;;27.33;25.53;;;;;;;;;;5095978;28;20419;-76
2021/04/09 11:24:04;;;;;;;26.80;25.10;;;;;;;;;;5093209;28;20974;-72
2021/04/09 11:26:35;;;;;;;25.30;23.77;;;;;;;;;;5094222;28;20493;-72
2021/04/09 11:29:02;;;;;;;25.83;24.13;;;;;;;;;;5095622;28;20899;-72
2021/04/09 11:31:29;;;;;;;25.30;23.77;;;;;;;;;;5095614;28;20441;-72
2021/04/09 11:34:04;;;;;;;26.90;25.30;;;;;;;;;;5093454;28;20419;-71
2021/04/09 11:36:38;;;;;;;25.63;24.13;;;;;;;;;;5095234;28;20436;-72
2021/04/09 11:39:06;;;;;;;25.60;24.00;;;;;;;;;;5095112;28;20947;-71
2021/04/09 11:41:34;;;;;;;27.53;25.73;;;;;;;;;;5088705;28;20408;-73
2021/04/09 11:44:01;;;;;;;26.30;24.53;;;;;;;;;;5083354;28;20548;-72
2021/04/09 11:46:35;;;;;;;26.17;24.47;;;;;;;;;;5083821;28;20464;-72
2021/04/09 11:49:02;;;;;;;25.37;23.80;;;;;;;;;;5073984;28;20405;-71
2021/04/09 11:51:30;;;;;;;25.13;23.63;;;;;;;;;;5073674;28;20441;-72
2021/04/09 11:54:00;;;;;;;25.67;24.07;;;;;;;;;;5073461;28;20494;-72
2021/04/09 11:56:45;;;;;;;27.00;25.20;;;;;;;;;;5074172;28;20408;-71
2021/04/09 11:59:12;;;;;;;26.83;24.73;;;;;;;;;;5074413;28;20956;-71
2021/04/09 12:01:40;;;;;;;26.97;25.23;;;;;;;;;;5074319;28;20920;-72
2021/04/09 12:04:06;;;;;;;27.43;25.70;;;;;;;;;;5074537;28;20456;-72
2021/04/09 12:06:38;;;;;;;26.80;24.93;;;;;;;;;;5074408;28;20433;-72
2021/04/09 12:09:05;;;;;;;28.50;26.37;;;;;;;;;;5074398;28;20438;-72
2021/04/09 12:11:32;;;;;;;26.63;24.87;;;;;;;;;;5074489;28;20534;-71
2021/04/09 12:13:59;;;;;;;26.73;25.13;;;;;;;;;;5073830;28;20886;-75
2021/04/09 12:16:25;;;;;;;27.97;26.20;;;;;;;;;;5074343;28;20894;-71
2021/04/09 12:18:52;;;;;;;29.17;27.10;;;;;;;;;;5074318;28;20412;-72
2021/04/09 12:21:19;;;;;;;28.60;26.80;;;;;;;;;;5074212;28;20416;-71
2021/04/09 12:23:47;;;;;;;28.73;26.70;;;;;;;;;;5074298;28;20510;-72
2021/04/09 12:26:14;;;;;;;28.57;26.63;;;;;;;;;;5073711;28;20469;-72
2021/04/09 12:28:41;;;;;;;29.27;27.30;;;;;;;;;;5074204;28;20513;-72
2021/04/09 12:31:08;;;;;;;28.27;26.37;;;;;;;;;;5073838;28;20470;-72
2021/04/09 12:33:35;;;;;;;28.80;26.80;;;;;;;;;;5073731;28;20459;-72
2021/04/09 12:36:02;;;;;;;28.10;26.33;;;;;;;;;;5073908;28;20903;-71
2021/04/09 12:38:29;;;;;;;28.53;26.83;;;;;;;;;;5074082;28;20424;-71
2021/04/09 12:40:56;;;;;;;31.40;29.23;;;;;;;;;;5074130;28;20401;-72
2021/04/09 12:43:23;;;;;;;29.80;27.90;;;;;;;;;;5073765;28;20430;-72
2021/04/09 12:45:50;;;;;;;30.23;28.23;;;;;;;;;;5073100;28;20477;-72
2021/04/09 12:48:17;;;;;;;29.47;27.37;;;;;;;;;;5073917;28;20404;-72
2021/04/09 12:50:44;;;;;;;31.47;29.17;;;;;;;;;;5073640;28;20451;-71
2021/04/09 12:53:11;;;;;;;29.80;28.00;;;;;;;;;;5073666;28;20960;-72
2021/04/09 12:55:37;;;;;;;30.03;28.03;;;;;;;;;;5072972;28;20478;-71
2021/04/09 12:58:05;;;;;;;32.17;29.97;;;;;;;;;;5073509;28;20434;-71
2021/04/09 13:00:32;;;;;;;30.70;28.83;;;;;;;;;;5073839;28;20441;-72
2021/04/09 13:03:01;;;;;;;32.50;30.00;;;;;;;;;;5073556;28;20446;-72
2021/04/09 13:05:29;;;;;;;32.83;30.70;;;;;;;;;;5073851;28;20435;-72
2021/04/09 13:07:56;;;;;;;32.80;30.50;;;;;;;;;;5073733;28;20429;-71
2021/04/09 13:10:22;;;;;;;29.77;27.67;;;;;;;;;;5073577;28;20420;-72
2021/04/09 13:12:49;;;;;;;32.60;30.20;;;;;;;;;;5073673;28;20456;-71
2021/04/09 13:15:17;;;;;;;31.80;29.80;;;;;;;;;;5073441;28;20434;-71
2021/04/09 13:17:44;;;;;;;31.97;29.93;;;;;;;;;;5073647;28;20430;-72
2021/04/09 13:20:11;;;;;;;32.53;30.63;;;;;;;;;;5073339;28;20924;-72
2021/04/09 13:22:38;;;;;;;32.60;30.40;;;;;;;;;;5073361;28;20436;-72
2021/04/09 13:25:06;;;;;;;29.87;28.07;;;;;;;;;;5073110;28;20490;-71
2021/04/09 13:27:36;;;;;;;32.30;29.90;;;;;;;;;;5073453;28;20462;-71
2021/04/09 13:30:04;;;;;;;30.83;28.77;;;;;;;;;;5072977;28;20409;-71
2021/04/09 13:32:32;;;;;;;34.63;31.93;;;;;;;;;;5072608;28;20488;-72
2021/04/09 13:34:59;;;;;;;27.37;25.67;;;;;;;;;;5072627;28;20449;-71
2021/04/09 13:37:27;;;;;;;29.63;27.83;;;;;;;;;;5072580;28;20890;-71
2021/04/09 13:39:54;;;;;;;27.87;26.17;;;;;;;;;;5072820;28;20432;-71
2021/04/09 13:42:20;;;;;;;33.23;31.07;;;;;;;;;;5071982;28;20937;-72
2021/04/09 13:44:47;;;;;;;32.77;30.53;;;;;;;;;;5073352;28;20412;-72
2021/04/09 13:47:14;;;;;;;31.30;29.10;;;;;;;;;;5071646;28;20420;-72
2021/04/09 13:49:42;;;;;;;33.43;31.00;;;;;;;;;;5073250;28;20482;-72
2021/04/09 13:52:09;;;;;;;33.93;31.63;;;;;;;;;;5073278;28;20799;-72
2021/04/09 13:54:36;;;;;;;31.23;29.30;;;;;;;;;;5072856;28;20527;-72
2021/04/09 13:57:03;;;;;;;31.70;29.50;;;;;;;;;;5076548;28;20535;-72
2021/04/09 13:59:30;;;;;;;33.43;31.07;;;;;;;;;;5077145;28;20416;-72
2021/04/09 14:01:57;;;;;;;33.60;31.00;;;;;;;;;;5075916;28;20433;-72
2021/04/09 14:04:24;;;;;;;32.40;30.07;;;;;;;;;;5077075;28;20434;-71
2021/04/09 14:06:52;;;;;;;32.90;30.60;;;;;;;;;;5076909;28;20419;-72
2021/04/09 14:09:19;;;;;;;32.40;30.20;;;;;;;;;;5076755;28;20820;-72
2021/04/09 14:11:46;;;;;;;31.17;28.97;;;;;;;;;;5076444;28;20430;-72
2021/04/09 14:14:13;;;;;;;34.83;32.10;;;;;;;;;;5076397;28;20857;-72
2021/04/09 14:16:40;;;;;;;32.60;30.50;;;;;;;;;;5076862;28;20789;-72
2021/04/09 14:19:06;;;;;;;32.50;30.30;;;;;;;;;;5076751;28;20439;-72
2021/04/09 14:21:33;;;;;;;34.07;31.83;;;;;;;;;;5076739;28;20437;-70
2021/04/09 14:24:01;;;;;;;33.70;31.50;;;;;;;;;;5076279;28;20412;-71